createdAt,value
2023-04-28T00:02:24.713Z,13.20
2023-04-28T00:04:52.813Z,13.10
2023-04-28T00:07:20.658Z,13.10
2023-04-28T00:09:48.328Z,12.90
2023-04-28T00:12:16.255Z,13.00
2023-04-28T00:14:43.906Z,13.00
2023-04-28T00:17:11.661Z,13.00
2023-04-28T00:19:39.426Z,13.00
2023-04-28T00:22:07.153Z,13.00
2023-04-28T00:24:36.748Z,13.00
2023-04-28T00:27:04.505Z,13.00
2023-04-28T00:29:32.213Z,13.00
2023-04-28T00:32:00.002Z,13.00
2023-04-28T00:34:28.116Z,13.10
2023-04-28T00:36:56.073Z,13.20
2023-04-28T00:39:23.759Z,13.20
2023-04-28T00:41:51.650Z,13.20
2023-04-28T00:44:19.894Z,13.30
2023-04-28T00:46:48.124Z,13.20
2023-04-28T00:49:18.983Z,13.30
2023-04-28T00:51:46.718Z,13.10
2023-04-28T00:54:15.430Z,13.10
2023-04-28T00:56:44.940Z,13.00
2023-04-28T00:59:12.812Z,13.10
2023-04-28T01:01:41.035Z,13.00
2023-04-28T01:04:09.425Z,13.10
2023-04-28T01:06:39.095Z,13.00
2023-04-28T01:09:07.737Z,13.00
2023-04-28T01:11:37.200Z,12.90
2023-04-28T01:14:25.155Z,12.70
2023-04-28T01:16:54.101Z,12.60
2023-04-28T01:19:23.127Z,12.60
2023-04-28T01:21:52.705Z,12.60
2023-04-28T01:24:25.891Z,12.50
2023-04-28T01:26:53.923Z,12.50
2023-04-28T01:29:23.405Z,12.40
2023-04-28T01:31:52.652Z,12.40
2023-04-28T01:34:20.679Z,12.30
2023-04-28T01:36:48.551Z,12.30
2023-04-28T01:39:16.812Z,12.20
2023-04-28T01:41:44.452Z,12.20
2023-04-28T01:44:13.317Z,12.20
2023-04-28T01:46:41.546Z,12.20
2023-04-28T01:49:09.366Z,12.20
2023-04-28T01:51:37.046Z,12.20
2023-04-28T01:54:05.766Z,12.10
2023-04-28T01:56:33.434Z,12.10
2023-04-28T01:59:01.579Z,12.00
2023-04-28T02:01:29.709Z,11.90
2023-04-28T02:03:57.579Z,11.80
2023-04-28T02:06:25.544Z,11.60
2023-04-28T02:08:53.187Z,11.50
2023-04-28T02:11:21.258Z,11.40
2023-04-28T02:13:49.043Z,11.40
2023-04-28T02:16:18.528Z,11.40
2023-04-28T02:18:46.282Z,11.50
2023-04-28T02:21:14.050Z,11.50
2023-04-28T02:23:41.886Z,11.50
2023-04-28T02:26:09.574Z,11.50
2023-04-28T02:28:37.233Z,11.50
2023-04-28T02:31:11.506Z,11.50
2023-04-28T02:33:39.330Z,11.60
2023-04-28T02:36:07.809Z,11.50
2023-04-28T02:38:35.850Z,11.50
2023-04-28T02:41:05.601Z,11.50
2023-04-28T02:43:34.064Z,11.50
2023-04-28T02:46:05.982Z,11.40
2023-04-28T02:48:36.095Z,11.70
2023-04-28T02:51:04.383Z,11.80
2023-04-28T02:53:33.238Z,11.90
2023-04-28T02:56:02.345Z,11.90
2023-04-28T02:58:30.804Z,11.80
2023-04-28T03:00:58.601Z,11.60
2023-04-28T03:03:26.343Z,11.50
2023-04-28T03:05:54.247Z,11.50
2023-04-28T03:08:22.611Z,11.60
2023-04-28T03:10:50.392Z,11.50
2023-04-28T03:13:18.229Z,11.50
2023-04-28T03:15:46.046Z,11.40
2023-04-28T03:18:13.772Z,11.40
2023-04-28T03:20:41.518Z,11.50
2023-04-28T03:23:10.267Z,11.50
2023-04-28T03:25:37.982Z,11.60
2023-04-28T03:28:06.144Z,11.70
2023-04-28T03:30:34.058Z,11.70
2023-04-28T03:33:01.995Z,11.80
2023-04-28T03:35:29.792Z,11.70
2023-04-28T03:37:57.480Z,11.70
2023-04-28T03:40:26.365Z,11.60
2023-04-28T03:43:14.317Z,11.70
2023-04-28T03:45:50.968Z,11.70
2023-04-28T03:48:18.675Z,11.70
2023-04-28T03:50:46.423Z,11.60
2023-04-28T03:53:14.980Z,11.60
2023-04-28T03:55:42.769Z,11.70
2023-04-28T03:58:10.823Z,11.60
2023-04-28T04:00:38.615Z,11.50
2023-04-28T04:03:07.141Z,11.40
2023-04-28T04:05:35.034Z,11.40
2023-04-28T04:08:03.285Z,11.40
2023-04-28T04:10:32.031Z,11.50
2023-04-28T04:12:59.921Z,11.40
2023-04-28T04:15:27.622Z,11.30
2023-04-28T04:17:55.483Z,11.50
2023-04-28T04:20:24.521Z,11.60
2023-04-28T04:22:52.325Z,11.60
2023-04-28T04:25:22.108Z,11.50
2023-04-28T04:27:51.150Z,11.60
2023-04-28T04:30:18.964Z,11.50
2023-04-28T04:32:46.818Z,11.50
2023-04-28T04:35:15.179Z,11.50
2023-04-28T04:37:43.297Z,11.50
2023-04-28T04:40:11.468Z,11.50
2023-04-28T04:42:46.317Z,11.70
2023-04-28T04:45:18.404Z,11.80
2023-04-28T04:47:46.361Z,11.80
2023-04-28T04:50:14.370Z,11.90
2023-04-28T04:52:42.166Z,12.00
2023-04-28T04:55:11.424Z,12.00
2023-04-28T04:57:41.806Z,12.00
2023-04-28T05:00:22.045Z,12.10
2023-04-28T05:02:51.019Z,12.10
2023-04-28T05:05:22.067Z,12.20
2023-04-28T05:08:06.153Z,12.20
2023-04-28T05:10:34.383Z,12.20
2023-04-28T05:13:03.511Z,12.20
2023-04-28T05:15:31.626Z,12.00
2023-04-28T05:18:15.993Z,12.00
2023-04-28T05:20:43.795Z,12.20
2023-04-28T05:23:12.859Z,12.40
2023-04-28T05:25:41.225Z,12.50
2023-04-28T05:28:13.981Z,12.60
2023-04-28T05:30:45.010Z,12.70
2023-04-28T05:33:14.211Z,12.80
2023-04-28T05:35:43.344Z,12.80
2023-04-28T05:38:11.534Z,12.90
2023-04-28T05:40:39.569Z,13.00
2023-04-28T05:43:07.322Z,13.10
2023-04-28T05:45:35.474Z,13.10
2023-04-28T05:48:05.298Z,13.10
2023-04-28T05:50:33.547Z,13.20
2023-04-28T05:53:02.590Z,13.30
2023-04-28T05:55:31.615Z,13.40
2023-04-28T05:57:59.980Z,13.50
2023-04-28T06:00:28.088Z,13.60
2023-04-28T06:02:59.507Z,13.60
2023-04-28T06:05:27.858Z,13.70
2023-04-28T06:07:56.737Z,13.70
2023-04-28T06:10:26.497Z,13.90
2023-04-28T06:12:54.227Z,13.90
2023-04-28T06:15:22.330Z,14.10
2023-04-28T06:17:50.182Z,14.10
2023-04-28T06:20:18.705Z,14.20
2023-04-28T06:22:46.684Z,14.30
2023-04-28T06:25:14.611Z,14.30
2023-04-28T06:27:46.552Z,14.40
2023-04-28T06:30:22.499Z,14.40
2023-04-28T06:32:50.993Z,14.50
2023-04-28T06:35:19.128Z,14.50
2023-04-28T06:37:46.967Z,14.50
2023-04-28T06:40:16.085Z,14.50
2023-04-28T06:42:50.617Z,14.50
2023-04-28T06:45:24.016Z,14.50
2023-04-28T06:47:52.717Z,14.60
2023-04-28T06:50:20.788Z,14.60
2023-04-28T06:52:48.547Z,14.80
2023-04-28T06:55:17.503Z,14.90
2023-04-28T06:57:45.340Z,15.00
2023-04-28T07:00:14.142Z,15.00
2023-04-28T07:02:42.086Z,15.20
2023-04-28T07:05:10.034Z,15.40
2023-04-28T07:07:39.174Z,15.50
2023-04-28T07:10:07.606Z,15.60
2023-04-28T07:12:35.509Z,15.70
2023-04-28T07:15:03.208Z,16.00
2023-04-28T07:17:31.193Z,16.20
2023-04-28T07:19:59.201Z,16.20
2023-04-28T07:22:26.913Z,16.30
2023-04-28T07:24:54.785Z,16.40
2023-04-28T07:27:22.488Z,16.30
2023-04-28T07:29:50.243Z,16.40
2023-04-28T07:32:18.201Z,16.50
2023-04-28T07:34:46.155Z,16.60
2023-04-28T07:37:14.048Z,16.70
2023-04-28T07:39:41.943Z,16.80
2023-04-28T07:42:10.875Z,16.80
2023-04-28T07:44:38.683Z,17.00
2023-04-28T07:47:06.740Z,17.00
2023-04-28T07:49:34.505Z,17.00
2023-04-28T07:52:02.825Z,17.10
2023-04-28T07:54:30.744Z,17.10
2023-04-28T07:56:58.445Z,17.20
2023-04-28T07:59:26.384Z,17.30
2023-04-28T08:01:54.094Z,17.30
2023-04-28T08:04:22.716Z,17.30
2023-04-28T08:06:51.008Z,17.30
2023-04-28T08:09:18.775Z,17.30
2023-04-28T08:11:46.511Z,17.40
2023-04-28T08:14:14.583Z,17.50
2023-04-28T08:16:42.655Z,17.60
2023-04-28T08:19:10.584Z,17.60
2023-04-28T08:21:38.552Z,17.70
2023-04-28T08:24:07.189Z,17.80
2023-04-28T08:26:35.121Z,17.80
2023-04-28T08:29:03.224Z,17.90
2023-04-28T08:31:31.400Z,18.10
2023-04-28T08:33:59.490Z,18.20
2023-04-28T08:36:32.095Z,18.30
2023-04-28T08:39:03.410Z,18.40
2023-04-28T08:41:33.661Z,18.50
2023-04-28T08:44:01.729Z,18.60
2023-04-28T08:46:30.403Z,18.70
2023-04-28T08:49:02.427Z,18.70
2023-04-28T08:51:45.164Z,18.70
2023-04-28T08:54:26.139Z,18.80
2023-04-28T08:56:57.404Z,18.80
2023-04-28T08:59:26.043Z,18.80
2023-04-28T09:01:54.231Z,18.90
2023-04-28T09:04:22.665Z,19.00
2023-04-28T09:06:50.961Z,19.10
2023-04-28T09:09:26.322Z,19.30
2023-04-28T09:11:59.910Z,19.20
2023-04-28T09:14:34.949Z,19.20
2023-04-28T09:17:09.534Z,19.20
2023-04-28T09:19:38.702Z,19.30
2023-04-28T09:22:17.558Z,19.30
2023-04-28T09:24:55.667Z,19.40
2023-04-28T09:27:28.985Z,19.50
2023-04-28T09:29:57.341Z,19.50
2023-04-28T09:32:28.103Z,19.60
2023-04-28T09:34:57.286Z,19.60
2023-04-28T09:37:27.603Z,19.70
2023-04-28T09:39:55.999Z,19.60
2023-04-28T09:42:37.369Z,19.50
2023-04-28T09:45:09.990Z,19.50
2023-04-28T09:47:41.053Z,19.60
2023-04-28T09:50:12.988Z,19.60
2023-04-28T09:52:49.450Z,19.60
2023-04-28T09:55:18.083Z,19.80
2023-04-28T09:57:49.931Z,19.90
2023-04-28T10:00:19.106Z,20.00
2023-04-28T10:02:47.802Z,20.10
2023-04-28T10:05:17.664Z,20.20
2023-04-28T10:07:46.985Z,20.30
2023-04-28T10:10:15.832Z,20.30
2023-04-28T10:12:45.146Z,20.40
2023-04-28T10:15:13.937Z,20.50
2023-04-28T10:17:42.242Z,20.40
2023-04-28T10:20:11.277Z,20.20
2023-04-28T10:22:57.548Z,20.20
2023-04-28T10:25:32.415Z,20.30
2023-04-28T10:28:01.317Z,20.40
2023-04-28T10:30:30.297Z,20.50
2023-04-28T10:33:14.252Z,20.50
2023-04-28T10:35:48.450Z,20.80
2023-04-28T10:38:21.515Z,21.00
2023-04-28T10:40:51.031Z,21.10
2023-04-28T10:43:39.939Z,21.20
2023-04-28T10:46:09.669Z,21.30
2023-04-28T10:48:49.498Z,21.30
2023-04-28T10:51:17.161Z,21.00
2023-04-28T10:53:45.085Z,21.00
2023-04-28T10:56:27.410Z,21.10
2023-04-28T10:58:55.753Z,21.20
2023-04-28T11:01:26.306Z,21.10
2023-04-28T11:04:01.086Z,21.00
2023-04-28T11:06:32.539Z,20.90
2023-04-28T11:09:02.281Z,20.90
2023-04-28T11:11:39.190Z,21.20
2023-04-28T11:14:19.373Z,21.50
2023-04-28T11:16:51.002Z,21.80
2023-04-28T11:19:24.725Z,22.00
2023-04-28T11:21:55.247Z,22.20
2023-04-28T11:24:27.597Z,22.10
2023-04-28T11:26:56.635Z,22.00
2023-04-28T11:29:38.847Z,21.80
2023-04-28T11:32:09.369Z,21.90
2023-04-28T11:34:38.073Z,22.00
2023-04-28T11:37:09.479Z,21.70
2023-04-28T11:39:37.435Z,21.90
2023-04-28T11:42:14.352Z,22.30
2023-04-28T11:44:42.479Z,22.50
2023-04-28T11:47:10.453Z,22.80
2023-04-28T11:49:45.800Z,22.70
2023-04-28T11:52:14.407Z,22.70
2023-04-28T11:54:44.802Z,22.80
2023-04-28T11:57:20.607Z,23.00
2023-04-28T11:59:49.402Z,23.20
2023-04-28T12:02:31.046Z,23.00
2023-04-28T12:05:07.868Z,23.30
2023-04-28T12:07:44.555Z,23.50
2023-04-28T12:10:20.112Z,23.70
2023-04-28T12:15:20.764Z,24.00
2023-04-28T12:17:50.882Z,24.00
2023-04-28T12:20:36.478Z,24.10
2023-04-28T12:23:05.536Z,23.80
2023-04-28T12:25:35.291Z,23.90
2023-04-28T12:28:08.484Z,24.00
2023-04-28T12:30:44.207Z,23.90
2023-04-28T12:33:29.906Z,24.00
2023-04-28T12:35:58.422Z,23.80
2023-04-28T12:38:28.294Z,23.80
2023-04-28T12:40:56.528Z,23.70
2023-04-28T12:43:24.355Z,23.80
2023-04-28T12:45:53.980Z,24.00
2023-04-28T12:48:24.079Z,24.10
2023-04-28T12:50:52.555Z,24.10
2023-04-28T12:53:20.476Z,24.30
2023-04-28T12:55:48.272Z,24.40
2023-04-28T12:58:16.020Z,24.60
2023-04-28T13:00:43.787Z,24.80
2023-04-28T13:03:11.640Z,24.80
2023-04-28T13:05:39.689Z,24.30
2023-04-28T13:08:07.651Z,24.50
2023-04-28T13:10:35.707Z,24.60
2023-04-28T13:13:04.780Z,24.70
2023-04-28T13:15:32.782Z,24.80
2023-04-28T13:18:00.914Z,24.80
2023-04-28T13:20:28.903Z,24.80
2023-04-28T13:22:56.888Z,25.00
2023-04-28T13:25:24.950Z,25.00
2023-04-28T13:27:53.050Z,25.30
2023-04-28T13:30:21.279Z,25.20
2023-04-28T13:32:49.255Z,25.30
2023-04-28T13:35:17.922Z,25.40
2023-04-28T13:37:46.397Z,25.60
2023-04-28T13:40:14.414Z,25.70
2023-04-28T13:42:42.259Z,25.80
2023-04-28T13:45:10.780Z,25.60
2023-04-28T13:47:39.023Z,25.10
2023-04-28T13:50:08.195Z,25.10
2023-04-28T13:52:36.673Z,25.20
2023-04-28T13:55:04.928Z,25.10
2023-04-28T13:57:32.936Z,25.10
2023-04-28T14:00:00.928Z,25.30
2023-04-28T14:02:29.117Z,25.40
2023-04-28T14:04:57.361Z,25.40
2023-04-28T14:07:25.226Z,25.40
2023-04-28T14:09:53.075Z,25.20
2023-04-28T14:12:20.909Z,25.20
2023-04-28T14:14:49.631Z,25.20
2023-04-28T14:17:17.498Z,25.00
2023-04-28T14:19:45.805Z,24.80
2023-04-28T14:22:13.574Z,25.00
2023-04-28T14:24:43.304Z,25.20
2023-04-28T14:27:11.215Z,25.30
2023-04-28T14:29:39.219Z,25.40
2023-04-28T14:32:07.303Z,25.50
2023-04-28T14:34:34.850Z,25.10
2023-04-28T14:37:02.555Z,24.90
2023-04-28T14:39:30.275Z,24.80
2023-04-28T14:41:58.115Z,24.80
2023-04-28T14:44:26.204Z,24.80
2023-04-28T14:46:54.014Z,24.90
2023-04-28T14:49:21.970Z,24.60
2023-04-28T14:51:50.246Z,24.40
2023-04-28T14:54:18.039Z,24.40
2023-04-28T14:56:45.766Z,24.40
2023-04-28T14:59:13.514Z,24.30
2023-04-28T15:01:42.398Z,24.40
2023-04-28T15:04:10.351Z,24.40
2023-04-28T15:06:38.055Z,24.60
2023-04-28T15:09:05.700Z,24.80
2023-04-28T15:11:33.480Z,24.70
2023-04-28T15:14:01.091Z,24.60
2023-04-28T15:16:28.768Z,24.50
2023-04-28T15:18:56.433Z,24.60
2023-04-28T15:21:24.591Z,24.60
2023-04-28T15:23:52.324Z,24.50
2023-04-28T15:26:19.939Z,24.60
2023-04-28T15:28:47.574Z,24.60
2023-04-28T15:31:15.285Z,24.70
2023-04-28T15:33:43.005Z,24.70
2023-04-28T15:36:10.789Z,24.60
2023-04-28T15:38:38.687Z,24.60
2023-04-28T15:41:06.380Z,24.40
2023-04-28T15:43:34.053Z,24.40
2023-04-28T15:46:02.917Z,24.30
2023-04-28T15:48:30.540Z,24.20
2023-04-28T15:50:58.676Z,24.00
2023-04-28T15:53:26.344Z,23.90
2023-04-28T15:55:53.987Z,24.00
2023-04-28T15:58:21.650Z,24.00
2023-04-28T16:00:49.700Z,23.80
2023-04-28T16:03:18.290Z,23.70
2023-04-28T16:05:46.960Z,23.70
2023-04-28T16:08:14.820Z,23.60
2023-04-28T16:10:42.628Z,23.50
2023-04-28T16:13:13.035Z,23.40
2023-04-28T16:15:41.923Z,23.30
2023-04-28T16:18:10.244Z,23.20
2023-04-28T16:20:38.294Z,23.40
2023-04-28T16:23:06.647Z,23.50
2023-04-28T16:25:35.485Z,23.30
2023-04-28T16:28:03.141Z,23.10
2023-04-28T16:30:30.896Z,23.10
2023-04-28T16:32:58.807Z,23.10
2023-04-28T16:35:26.534Z,23.20
2023-04-28T16:37:54.210Z,23.20
2023-04-28T16:40:22.181Z,23.00
2023-04-28T16:42:49.778Z,22.90
2023-04-28T16:45:17.549Z,22.90
2023-04-28T16:47:46.412Z,22.90
2023-04-28T16:50:17.453Z,22.90
2023-04-28T16:52:45.156Z,22.40
2023-04-28T16:55:12.889Z,22.40
2023-04-28T16:57:40.696Z,22.30
2023-04-28T17:00:09.427Z,22.40
2023-04-28T17:02:37.199Z,22.20
2023-04-28T17:05:05.254Z,22.40
2023-04-28T17:07:32.920Z,22.30
2023-04-28T17:10:00.865Z,22.20
2023-04-28T17:12:28.552Z,22.00
2023-04-28T17:14:56.320Z,22.10
2023-04-28T17:17:23.998Z,22.00
2023-04-28T17:19:51.863Z,22.00
2023-04-28T17:22:19.598Z,21.90
2023-04-28T17:24:47.241Z,21.90
2023-04-28T17:27:14.872Z,21.90
2023-04-28T17:29:43.553Z,22.00
2023-04-28T17:32:11.334Z,22.00
2023-04-28T17:34:38.981Z,22.00
2023-04-28T17:37:06.998Z,22.00
2023-04-28T17:39:34.613Z,21.80
2023-04-28T17:42:02.724Z,21.70
2023-04-28T17:44:30.535Z,21.70
2023-04-28T17:46:58.706Z,21.70
2023-04-28T17:49:26.635Z,21.60
2023-04-28T17:51:54.280Z,21.50
2023-04-28T17:54:21.942Z,21.30
2023-04-28T17:56:50.798Z,21.20
2023-04-28T17:59:18.467Z,21.20
2023-04-28T18:01:46.186Z,21.10
2023-04-28T18:04:13.891Z,21.00
2023-04-28T18:06:41.614Z,20.80
2023-04-28T18:09:09.786Z,20.60
2023-04-28T18:11:37.461Z,20.60
2023-04-28T18:14:05.184Z,20.50
2023-04-28T18:16:32.896Z,20.40
2023-04-28T18:19:00.645Z,20.40
2023-04-28T18:21:28.335Z,20.30
2023-04-28T18:23:56.477Z,20.10
2023-04-28T18:26:24.683Z,20.00
2023-04-28T18:28:52.513Z,19.80
2023-04-28T18:31:20.382Z,19.40
2023-04-28T18:33:48.195Z,19.20
2023-04-28T18:36:16.073Z,19.10
2023-04-28T18:38:43.740Z,19.10
2023-04-28T18:41:18.676Z,19.00
2023-04-28T18:43:46.644Z,19.10
2023-04-28T18:46:15.257Z,19.00
2023-04-28T18:48:43.843Z,18.80
2023-04-28T18:51:11.587Z,18.60
2023-04-28T18:53:39.307Z,18.50
2023-04-28T18:56:07.030Z,18.40
2023-04-28T18:58:37.250Z,18.40
2023-04-28T19:01:05.081Z,18.40
2023-04-28T19:03:33.066Z,18.50
2023-04-28T19:06:00.904Z,18.60
2023-04-28T19:08:28.511Z,18.50
2023-04-28T19:10:58.593Z,18.30
2023-04-28T19:13:27.541Z,18.30
2023-04-28T19:15:56.381Z,18.10
2023-04-28T19:18:24.251Z,18.40
2023-04-28T19:21:02.825Z,18.40
2023-04-28T19:23:31.898Z,18.40
2023-04-28T19:26:00.114Z,18.40
2023-04-28T19:28:29.099Z,18.50
2023-04-28T19:30:58.295Z,18.40
2023-04-28T19:33:28.272Z,18.40
2023-04-28T19:35:56.321Z,18.30
2023-04-28T19:38:24.155Z,18.30
2023-04-28T19:41:00.805Z,18.30
2023-04-28T19:43:28.550Z,18.20
2023-04-28T19:45:57.166Z,18.10
2023-04-28T19:48:26.311Z,18.00
2023-04-28T19:50:54.340Z,18.10
2023-04-28T19:53:22.128Z,18.10
2023-04-28T19:55:50.331Z,18.00
2023-04-28T19:58:18.481Z,18.00
2023-04-28T20:00:47.948Z,18.00
2023-04-28T20:03:16.482Z,17.90
2023-04-28T20:05:44.229Z,17.90
2023-04-28T20:08:12.828Z,17.80
2023-04-28T20:10:40.759Z,17.80
2023-04-28T20:13:08.565Z,17.70
2023-04-28T20:15:36.523Z,17.70
2023-04-28T20:18:04.417Z,17.50
2023-04-28T20:20:32.146Z,17.50
2023-04-28T20:22:59.859Z,17.30
2023-04-28T20:25:27.935Z,17.00
2023-04-28T20:27:55.590Z,17.10
2023-04-28T20:30:23.727Z,17.10
2023-04-28T20:32:51.373Z,17.10
2023-04-28T20:35:19.301Z,17.10
2023-04-28T20:37:47.037Z,17.10
2023-04-28T20:40:15.433Z,17.10
2023-04-28T20:42:43.836Z,16.90
2023-04-28T20:45:11.688Z,16.70
2023-04-28T20:47:39.418Z,16.60
2023-04-28T20:50:10.927Z,16.40
2023-04-28T20:52:39.326Z,16.40
2023-04-28T20:55:09.685Z,16.50
2023-04-28T20:57:37.413Z,16.40
2023-04-28T21:00:07.153Z,16.00
2023-04-28T21:02:35.025Z,16.20
2023-04-28T21:05:02.854Z,16.20
2023-04-28T21:07:30.542Z,16.10
2023-04-28T21:09:58.341Z,16.20
2023-04-28T21:12:26.056Z,16.10
2023-04-28T21:14:53.686Z,15.90
2023-04-28T21:17:21.407Z,15.80
2023-04-28T21:19:49.205Z,15.90
2023-04-28T21:22:17.206Z,16.10
2023-04-28T21:24:44.942Z,16.30
2023-04-28T21:27:12.576Z,16.40
2023-04-28T21:29:40.870Z,16.40
2023-04-28T21:32:09.276Z,16.30
2023-04-28T21:34:37.196Z,16.20
2023-04-28T21:37:05.687Z,16.20
2023-04-28T21:39:33.975Z,16.30
2023-04-28T21:42:01.901Z,16.40
2023-04-28T21:44:30.002Z,16.30
2023-04-28T21:46:57.592Z,16.30
2023-04-28T21:49:25.660Z,16.30
2023-04-28T21:51:53.493Z,16.30
2023-04-28T21:54:21.344Z,16.10
2023-04-28T21:56:48.967Z,15.80
2023-04-28T21:59:18.043Z,15.90
2023-04-28T22:01:46.110Z,15.90
2023-04-28T22:04:14.020Z,15.80
2023-04-28T22:06:41.873Z,15.80
2023-04-28T22:09:09.570Z,15.60
2023-04-28T22:11:37.783Z,15.50
2023-04-28T22:14:05.833Z,15.50
2023-04-28T22:16:33.804Z,15.70
2023-04-28T22:19:02.427Z,15.70
2023-04-28T22:21:30.581Z,15.60
2023-04-28T22:23:58.216Z,15.70
2023-04-28T22:26:29.991Z,15.70
2023-04-28T22:28:57.698Z,15.80
2023-04-28T22:31:25.397Z,16.00
2023-04-28T22:33:53.126Z,15.80
2023-04-28T22:36:23.737Z,15.60
2023-04-28T22:38:51.784Z,15.50
2023-04-28T22:41:19.507Z,15.60
2023-04-28T22:43:47.312Z,15.50
2023-04-28T22:46:15.115Z,15.60
2023-04-28T22:48:42.899Z,15.50
2023-04-28T22:51:10.643Z,15.40
2023-04-28T22:53:38.514Z,15.50
2023-04-28T22:56:06.855Z,15.50
2023-04-28T22:58:34.655Z,15.60
2023-04-28T23:01:04.366Z,15.60
2023-04-28T23:03:32.730Z,15.90
2023-04-28T23:06:00.618Z,15.90
2023-04-28T23:08:28.319Z,16.10
2023-04-28T23:10:57.288Z,15.90
2023-04-28T23:13:25.452Z,15.80
2023-04-28T23:15:53.497Z,15.60
2023-04-28T23:18:21.372Z,15.50
2023-04-28T23:20:50.158Z,15.40
2023-04-28T23:23:17.957Z,15.30
2023-04-28T23:25:45.758Z,15.20
2023-04-28T23:28:13.601Z,15.20
2023-04-28T23:30:41.414Z,15.20
2023-04-28T23:33:09.576Z,15.10
2023-04-28T23:35:37.956Z,15.10
2023-04-28T23:38:05.657Z,15.00
2023-04-28T23:40:33.368Z,15.00
2023-04-28T23:43:01.014Z,15.10
2023-04-28T23:45:28.750Z,15.10
2023-04-28T23:47:56.615Z,15.20
2023-04-28T23:50:24.387Z,15.10
2023-04-28T23:52:52.114Z,15.00
2023-04-28T23:55:19.884Z,14.90
2023-04-28T23:57:47.673Z,14.90
